createdAt,value
2023-04-14T00:02:23.216Z,92.20
2023-04-14T00:04:54.318Z,92.20
2023-04-14T00:07:21.730Z,92.30
2023-04-14T00:09:48.778Z,92.20
2023-04-14T00:12:16.041Z,92.30
2023-04-14T00:14:46.172Z,92.10
2023-04-14T00:17:13.190Z,92.20
2023-04-14T00:19:40.317Z,92.20
2023-04-14T00:22:07.374Z,92.30
2023-04-14T00:24:40.842Z,92.20
2023-04-14T00:27:07.738Z,92.10
2023-04-14T00:29:34.973Z,92.20
2023-04-14T00:32:02.142Z,92.20
2023-04-14T00:34:29.651Z,92.20
2023-04-14T00:36:56.601Z,92.10
2023-04-14T00:39:23.416Z,92.00
2023-04-14T00:41:50.333Z,92.00
2023-04-14T00:44:17.212Z,92.10
2023-04-14T00:46:44.404Z,92.30
2023-04-14T00:49:11.381Z,92.40
2023-04-14T00:51:38.753Z,92.50
2023-04-14T00:54:09.749Z,92.60
2023-04-14T00:56:36.782Z,92.50
2023-04-14T00:59:04.276Z,92.30
2023-04-14T01:01:33.496Z,92.20
2023-04-14T01:04:01.014Z,92.20
2023-04-14T01:06:28.295Z,92.10
2023-04-14T01:08:56.495Z,92.00
2023-04-14T01:11:53.976Z,92.00
2023-04-14T01:14:42.520Z,91.90
2023-04-14T01:17:44.539Z,91.90
2023-04-14T01:20:14.598Z,91.90
2023-04-14T01:22:55.554Z,92.00
2023-04-14T01:25:50.826Z,92.00
2023-04-14T01:28:23.986Z,92.10
2023-04-14T01:31:20.774Z,92.20
2023-04-14T01:34:08.033Z,92.20
2023-04-14T01:36:48.009Z,92.00
2023-04-14T01:39:21.486Z,92.00
2023-04-14T01:41:52.376Z,92.00
2023-04-14T01:44:22.348Z,92.00
2023-04-14T01:46:52.034Z,92.00
2023-04-14T01:49:21.007Z,92.00
2023-04-14T01:51:48.729Z,92.10
2023-04-14T01:54:18.072Z,92.10
2023-04-14T01:56:45.764Z,92.10
2023-04-14T01:59:13.694Z,92.10
2023-04-14T02:01:41.891Z,92.20
2023-04-14T02:04:09.814Z,92.70
2023-04-14T02:06:37.751Z,92.90
2023-04-14T02:09:10.305Z,92.90
2023-04-14T02:11:37.824Z,92.90
2023-04-14T02:14:06.104Z,92.90
2023-04-14T02:16:36.062Z,92.80
2023-04-14T02:19:05.731Z,92.60
2023-04-14T02:21:34.501Z,92.70
2023-04-14T02:24:02.052Z,92.50
2023-04-14T02:26:32.335Z,92.50
2023-04-14T02:29:12.185Z,92.60
2023-04-14T02:31:55.597Z,92.70
2023-04-14T02:34:27.248Z,92.70
2023-04-14T02:36:57.978Z,92.70
2023-04-14T02:39:38.935Z,93.00
2023-04-14T02:42:14.906Z,93.20
2023-04-14T02:44:56.811Z,93.20
2023-04-14T02:47:31.816Z,93.20
2023-04-14T02:50:00.571Z,93.20
2023-04-14T02:52:31.505Z,93.10
2023-04-14T02:55:00.304Z,93.00
2023-04-14T02:57:29.852Z,92.90
2023-04-14T02:59:58.801Z,92.90
2023-04-14T03:02:27.430Z,93.10
2023-04-14T03:04:54.793Z,93.10
2023-04-14T03:07:23.239Z,93.20
2023-04-14T03:09:51.661Z,93.10
2023-04-14T03:12:20.124Z,93.00
2023-04-14T03:14:48.630Z,93.00
2023-04-14T03:17:18.439Z,93.10
2023-04-14T03:19:50.319Z,93.20
2023-04-14T03:22:18.505Z,93.20
2023-04-14T03:24:45.860Z,93.20
2023-04-14T03:27:16.787Z,93.20
2023-04-14T03:29:47.451Z,93.30
2023-04-14T03:32:17.675Z,93.20
2023-04-14T03:34:48.167Z,93.20
2023-04-14T03:37:18.156Z,93.20
2023-04-14T03:39:47.678Z,93.30
2023-04-14T03:42:16.509Z,93.40
2023-04-14T03:44:50.083Z,93.50
2023-04-14T03:47:18.225Z,93.60
2023-04-14T03:49:48.228Z,93.50
2023-04-14T03:52:21.056Z,93.50
2023-04-14T03:54:50.638Z,93.60
2023-04-14T03:57:19.303Z,93.80
2023-04-14T03:59:50.416Z,93.80
2023-04-14T04:02:18.631Z,93.80
2023-04-14T04:04:47.247Z,93.70
2023-04-14T04:07:14.769Z,93.60
2023-04-14T04:09:42.916Z,93.40
2023-04-14T04:12:11.742Z,93.30
2023-04-14T04:14:40.632Z,93.30
2023-04-14T04:17:09.325Z,93.40
2023-04-14T04:19:37.231Z,93.40
2023-04-14T04:22:04.790Z,92.80
2023-04-14T04:24:37.152Z,93.00
2023-04-14T04:27:07.915Z,93.10
2023-04-14T04:29:38.845Z,92.80
2023-04-14T04:32:06.770Z,92.40
2023-04-14T04:34:34.588Z,92.30
2023-04-14T04:37:02.530Z,92.30
2023-04-14T04:39:32.615Z,92.30
2023-04-14T04:42:07.057Z,92.30
2023-04-14T04:44:34.956Z,92.20
2023-04-14T04:47:02.835Z,92.20
2023-04-14T04:49:29.679Z,92.30
2023-04-14T04:51:57.147Z,92.50
2023-04-14T04:54:24.472Z,92.40
2023-04-14T04:56:51.450Z,92.10
2023-04-14T04:59:18.318Z,92.20
2023-04-14T05:01:45.313Z,92.30
2023-04-14T05:04:12.375Z,92.40
2023-04-14T05:06:39.505Z,92.40
2023-04-14T05:09:08.157Z,92.60
2023-04-14T05:11:35.575Z,92.80
2023-04-14T05:14:02.979Z,92.90
2023-04-14T05:16:30.046Z,92.90
2023-04-14T05:18:57.124Z,92.30
2023-04-14T05:21:24.034Z,92.30
2023-04-14T05:23:51.109Z,92.50
2023-04-14T05:28:49.266Z,92.80
2023-04-14T05:31:16.587Z,93.00
2023-04-14T05:33:43.582Z,92.90
2023-04-14T05:36:11.369Z,92.70
2023-04-14T05:38:40.110Z,92.50
2023-04-14T05:41:07.784Z,92.50
2023-04-14T05:43:34.871Z,92.40
2023-04-14T05:46:01.924Z,92.40
2023-04-14T05:48:31.131Z,92.40
2023-04-14T05:50:59.460Z,92.40
2023-04-14T05:53:27.490Z,92.30
2023-04-14T05:55:54.376Z,92.40
2023-04-14T05:58:21.703Z,92.50
2023-04-14T06:00:48.762Z,92.70
2023-04-14T06:03:16.790Z,92.60
2023-04-14T06:05:43.942Z,92.70
2023-04-14T06:08:10.935Z,92.70
2023-04-14T06:10:37.878Z,92.80
2023-04-14T06:13:04.795Z,93.10
2023-04-14T06:15:31.865Z,93.30
2023-04-14T06:17:58.744Z,93.50
2023-04-14T06:20:25.833Z,93.80
2023-04-14T06:22:52.843Z,94.00
2023-04-14T06:25:19.746Z,94.00
2023-04-14T06:27:46.567Z,94.00
2023-04-14T06:30:15.433Z,93.90
2023-04-14T06:32:42.546Z,93.80
2023-04-14T06:35:16.368Z,93.70
2023-04-14T06:37:43.363Z,93.60
2023-04-14T06:40:10.574Z,93.40
2023-04-14T06:42:37.394Z,93.30
2023-04-14T06:45:04.536Z,93.30
2023-04-14T06:47:31.529Z,93.20
2023-04-14T06:49:58.835Z,92.80
2023-04-14T06:52:25.908Z,92.70
2023-04-14T06:54:52.861Z,92.20
2023-04-14T06:57:19.848Z,92.00
2023-04-14T06:59:46.710Z,91.90
2023-04-14T07:02:13.810Z,91.50
2023-04-14T07:04:40.859Z,91.50
2023-04-14T07:07:07.832Z,91.60
2023-04-14T07:09:35.137Z,91.30
2023-04-14T07:12:02.520Z,91.30
2023-04-14T07:14:34.159Z,91.20
2023-04-14T07:17:00.970Z,90.90
2023-04-14T07:19:27.736Z,90.90
2023-04-14T07:21:54.832Z,90.60
2023-04-14T07:24:21.788Z,90.40
2023-04-14T07:26:48.727Z,90.40
2023-04-14T07:29:16.016Z,90.10
2023-04-14T07:31:43.205Z,90.00
2023-04-14T07:34:10.116Z,89.90
2023-04-14T07:36:37.250Z,89.30
2023-04-14T07:39:04.123Z,89.70
2023-04-14T07:41:31.639Z,89.80
2023-04-14T07:43:59.550Z,89.30
2023-04-14T07:46:27.866Z,89.50
2023-04-14T07:48:55.600Z,89.20
2023-04-14T07:51:22.325Z,88.80
2023-04-14T07:53:51.720Z,89.00
2023-04-14T07:56:18.761Z,88.00
2023-04-14T07:58:45.723Z,87.50
2023-04-14T08:01:12.875Z,87.70
2023-04-14T08:03:41.279Z,87.60
2023-04-14T08:06:09.731Z,88.40
2023-04-14T08:08:36.870Z,87.50
2023-04-14T08:11:03.743Z,87.40
2023-04-14T08:13:30.830Z,87.30
2023-04-14T08:15:58.177Z,87.90
2023-04-14T08:18:25.024Z,87.90
2023-04-14T08:20:51.917Z,87.00
2023-04-14T08:23:18.898Z,86.90
2023-04-14T08:25:45.777Z,86.20
2023-04-14T08:28:12.791Z,85.80
2023-04-14T08:30:39.687Z,85.80
2023-04-14T08:33:07.029Z,85.50
2023-04-14T08:35:41.469Z,84.90
2023-04-14T08:38:09.195Z,85.40
2023-04-14T08:40:41.483Z,84.70
2023-04-14T08:43:09.027Z,85.10
2023-04-14T08:45:36.700Z,84.80
2023-04-14T08:48:04.711Z,84.80
2023-04-14T08:50:45.382Z,85.60
2023-04-14T08:53:13.515Z,84.40
2023-04-14T08:55:41.957Z,83.70
2023-04-14T08:58:10.914Z,83.80
2023-04-14T09:00:40.012Z,84.30
2023-04-14T09:03:09.322Z,84.70
2023-04-14T09:05:37.498Z,84.60
2023-04-14T09:08:05.034Z,84.80
2023-04-14T09:10:32.643Z,84.80
2023-04-14T09:13:00.328Z,85.50
2023-04-14T09:15:29.216Z,85.20
2023-04-14T09:17:56.577Z,85.20
2023-04-14T09:20:38.105Z,84.80
2023-04-14T09:23:09.715Z,83.10
2023-04-14T09:25:38.605Z,83.80
2023-04-14T09:28:05.512Z,82.20
2023-04-14T09:30:33.243Z,82.80
2023-04-14T09:33:04.116Z,82.70
2023-04-14T09:35:43.354Z,83.50
2023-04-14T09:38:10.224Z,83.80
2023-04-14T09:40:39.156Z,82.90
2023-04-14T09:43:06.143Z,82.00
2023-04-14T09:45:44.917Z,83.10
2023-04-14T09:48:13.185Z,82.80
2023-04-14T09:51:00.036Z,81.50
2023-04-14T09:53:31.968Z,82.70
2023-04-14T09:56:00.152Z,81.80
2023-04-14T09:58:32.747Z,82.00
2023-04-14T10:00:59.643Z,81.70
2023-04-14T10:03:34.852Z,81.60
2023-04-14T10:06:04.772Z,81.90
2023-04-14T10:08:36.960Z,81.60
2023-04-14T10:11:26.466Z,81.90
2023-04-14T10:13:55.707Z,81.60
2023-04-14T10:16:24.092Z,81.10
2023-04-14T10:18:52.606Z,80.60
2023-04-14T10:21:22.399Z,81.20
2023-04-14T10:23:49.790Z,81.10
2023-04-14T10:26:17.205Z,80.60
2023-04-14T10:28:51.747Z,81.20
2023-04-14T10:31:52.823Z,80.10
2023-04-14T10:34:21.819Z,80.20
2023-04-14T10:36:49.057Z,78.90
2023-04-14T10:39:24.398Z,78.70
2023-04-14T10:41:53.045Z,78.90
2023-04-14T10:44:34.698Z,78.90
2023-04-14T10:47:07.664Z,77.40
2023-04-14T10:49:36.126Z,77.60
2023-04-14T10:52:26.427Z,77.60
2023-04-14T10:55:02.821Z,75.50
2023-04-14T10:57:30.245Z,75.30
2023-04-14T10:59:59.335Z,75.90
2023-04-14T11:02:28.370Z,75.40
2023-04-14T11:05:06.576Z,75.50
2023-04-14T11:07:47.571Z,76.50
2023-04-14T11:10:17.612Z,78.20
2023-04-14T11:12:46.046Z,77.50
2023-04-14T11:15:13.170Z,79.40
2023-04-14T11:17:41.522Z,78.40
2023-04-14T11:20:19.901Z,77.50
2023-04-14T11:22:50.253Z,76.80
2023-04-14T11:25:24.093Z,77.20
2023-04-14T11:27:52.396Z,77.30
2023-04-14T11:30:21.335Z,78.00
2023-04-14T11:32:53.999Z,78.30
2023-04-14T11:35:23.627Z,79.10
2023-04-14T11:37:54.239Z,80.40
2023-04-14T11:40:22.166Z,81.40
2023-04-14T11:42:59.298Z,81.70
2023-04-14T11:45:30.923Z,81.90
2023-04-14T11:48:03.403Z,82.00
2023-04-14T11:50:31.444Z,82.30
2023-04-14T11:52:59.904Z,82.10
2023-04-14T11:55:27.907Z,82.50
2023-04-14T11:57:55.860Z,82.50
2023-04-14T12:00:24.390Z,82.70
2023-04-14T12:02:51.815Z,83.00
2023-04-14T12:05:25.479Z,83.10
2023-04-14T12:07:59.180Z,82.90
2023-04-14T12:10:27.208Z,83.50
2023-04-14T12:13:08.031Z,83.40
2023-04-14T12:15:40.309Z,83.30
2023-04-14T12:18:13.769Z,83.20
2023-04-14T12:21:01.897Z,83.20
2023-04-14T12:23:28.899Z,83.10
2023-04-14T12:25:56.111Z,82.60
2023-04-14T12:28:30.161Z,82.90
2023-04-14T12:31:02.323Z,82.90
2023-04-14T12:33:31.046Z,83.20
2023-04-14T12:36:05.304Z,83.20
2023-04-14T12:38:33.159Z,82.90
2023-04-14T12:41:00.549Z,82.60
2023-04-14T12:43:32.120Z,82.50
2023-04-14T12:45:59.910Z,82.70
2023-04-14T12:48:44.784Z,83.00
2023-04-14T12:51:13.959Z,82.60
2023-04-14T12:53:42.741Z,82.60
2023-04-14T12:56:22.237Z,82.80
2023-04-14T12:58:49.612Z,82.60
2023-04-14T13:01:18.222Z,80.90
2023-04-14T13:03:55.762Z,81.10
2023-04-14T13:06:24.189Z,81.50
2023-04-14T13:08:53.641Z,81.10
2023-04-14T13:11:22.299Z,81.70
2023-04-14T13:13:49.346Z,82.00
2023-04-14T13:16:27.268Z,81.90
2023-04-14T13:18:54.757Z,81.40
2023-04-14T13:21:21.608Z,81.00
2023-04-14T13:23:48.536Z,80.90
2023-04-14T13:26:18.541Z,81.10
2023-04-14T13:28:46.021Z,81.80
2023-04-14T13:31:17.192Z,81.70
2023-04-14T13:33:44.475Z,81.90
2023-04-14T13:36:11.280Z,82.00
2023-04-14T13:38:38.225Z,80.90
2023-04-14T13:41:05.089Z,80.50
2023-04-14T13:43:33.134Z,81.80
2023-04-14T13:46:00.803Z,80.60
2023-04-14T13:48:28.029Z,80.50
2023-04-14T13:50:55.898Z,80.00
2023-04-14T13:53:22.960Z,80.30
2023-04-14T13:55:49.821Z,80.70
2023-04-14T13:58:16.641Z,81.20
2023-04-14T14:00:43.503Z,81.10
2023-04-14T14:03:10.378Z,79.90
2023-04-14T14:05:37.351Z,78.90
2023-04-14T14:08:04.182Z,80.00
2023-04-14T14:10:31.097Z,79.90
2023-04-14T14:12:57.890Z,78.30
2023-04-14T14:15:24.757Z,77.00
2023-04-14T14:17:53.270Z,77.30
2023-04-14T14:20:20.329Z,78.10
2023-04-14T14:22:47.729Z,79.20
2023-04-14T14:25:21.110Z,78.80
2023-04-14T14:27:49.136Z,77.20
2023-04-14T14:30:16.290Z,77.20
2023-04-14T14:32:43.154Z,75.60
2023-04-14T14:35:10.494Z,74.80
2023-04-14T14:37:37.460Z,76.40
2023-04-14T14:40:04.711Z,76.70
2023-04-14T14:42:31.556Z,76.00
2023-04-14T14:44:59.250Z,76.70
2023-04-14T14:47:28.360Z,77.20
2023-04-14T14:50:00.912Z,76.50
2023-04-14T14:52:34.066Z,76.30
2023-04-14T14:55:01.766Z,76.40
2023-04-14T14:57:29.571Z,76.80
2023-04-14T14:59:57.248Z,76.80
2023-04-14T15:02:25.524Z,77.30
2023-04-14T15:04:53.428Z,78.50
2023-04-14T15:07:20.830Z,78.40
2023-04-14T15:09:48.774Z,78.10
2023-04-14T15:12:15.606Z,77.40
2023-04-14T15:14:42.532Z,76.90
2023-04-14T15:17:09.358Z,78.50
2023-04-14T15:19:37.932Z,79.00
2023-04-14T15:22:04.744Z,79.80
2023-04-14T15:24:31.626Z,81.20
2023-04-14T15:26:58.469Z,81.20
2023-04-14T15:29:26.665Z,81.20
2023-04-14T15:31:53.619Z,81.60
2023-04-14T15:34:21.496Z,81.70
2023-04-14T15:36:48.488Z,82.00
2023-04-14T15:39:15.452Z,81.50
2023-04-14T15:41:42.381Z,81.30
2023-04-14T15:44:09.215Z,80.80
2023-04-14T15:46:36.020Z,80.90
2023-04-14T15:49:02.809Z,81.00
2023-04-14T15:51:29.811Z,81.30
2023-04-14T15:53:57.749Z,81.40
2023-04-14T15:56:24.604Z,81.00
2023-04-14T15:58:51.476Z,82.00
2023-04-14T16:01:18.413Z,83.00
2023-04-14T16:03:45.427Z,83.90
2023-04-14T16:06:12.436Z,84.80
2023-04-14T16:08:39.416Z,85.60
2023-04-14T16:11:06.331Z,87.00
2023-04-14T16:13:33.220Z,87.90
2023-04-14T16:16:00.206Z,88.30
2023-04-14T16:18:27.615Z,89.10
2023-04-14T16:20:54.416Z,90.00
2023-04-14T16:23:21.966Z,90.50
2023-04-14T16:25:51.847Z,90.90
2023-04-14T16:28:18.697Z,91.00
2023-04-14T16:30:48.190Z,91.20
2023-04-14T16:33:16.622Z,91.40
2023-04-14T16:35:43.418Z,91.60
2023-04-14T16:38:10.266Z,91.60
2023-04-14T16:40:38.025Z,91.60
2023-04-14T16:43:04.935Z,91.60
2023-04-14T16:45:32.259Z,91.40
2023-04-14T16:47:59.564Z,91.10
2023-04-14T16:50:27.265Z,91.00
2023-04-14T16:52:55.633Z,90.90
2023-04-14T16:55:22.545Z,90.90
2023-04-14T16:57:49.325Z,90.80
2023-04-14T17:00:16.886Z,90.90
2023-04-14T17:02:43.985Z,91.20
2023-04-14T17:05:13.310Z,91.40
2023-04-14T17:07:41.138Z,91.30
2023-04-14T17:10:08.763Z,91.60
2023-04-14T17:12:35.580Z,91.40
2023-04-14T17:15:03.788Z,91.30
2023-04-14T17:17:31.979Z,91.30
2023-04-14T17:19:59.515Z,91.20
2023-04-14T17:22:27.635Z,91.20
2023-04-14T17:24:54.909Z,91.30
2023-04-14T17:27:22.369Z,91.40
2023-04-14T17:29:49.489Z,91.50
2023-04-14T17:32:18.539Z,91.60
2023-04-14T17:34:48.438Z,91.70
2023-04-14T17:37:15.878Z,91.80
2023-04-14T17:39:43.334Z,92.00
2023-04-14T17:42:11.438Z,91.90
2023-04-14T17:44:38.445Z,91.90
2023-04-14T17:47:13.141Z,91.70
2023-04-14T17:49:40.090Z,91.80
2023-04-14T17:52:07.864Z,91.90
2023-04-14T17:54:36.233Z,91.80
2023-04-14T17:57:04.445Z,91.90
2023-04-14T18:03:18.797Z,91.80
2023-04-14T18:05:45.619Z,91.80
2023-04-14T18:08:12.428Z,91.80
2023-04-14T18:10:39.243Z,91.90
2023-04-14T18:13:06.036Z,92.10
2023-04-14T18:15:32.832Z,92.10
2023-04-14T18:17:59.621Z,92.00
2023-04-14T18:20:26.636Z,92.10
2023-04-14T18:22:54.672Z,92.00
2023-04-14T18:25:21.682Z,92.00
2023-04-14T18:30:18.584Z,92.20
2023-04-14T18:32:46.545Z,92.30
2023-04-14T18:35:13.596Z,92.40
2023-04-14T18:37:40.517Z,92.50
2023-04-14T18:40:07.973Z,92.70
2023-04-14T18:42:36.017Z,92.80
2023-04-14T18:45:03.592Z,92.80
2023-04-14T18:47:30.503Z,92.70
2023-04-14T18:49:57.415Z,92.70
2023-04-14T18:52:24.239Z,92.70
2023-04-14T18:54:51.374Z,92.70
2023-04-14T18:57:18.463Z,92.80
2023-04-14T18:59:45.799Z,92.70
2023-04-14T19:02:13.770Z,92.70
2023-04-14T19:04:40.964Z,92.60
2023-04-14T19:07:07.820Z,92.50
2023-04-14T19:09:36.178Z,92.50
2023-04-14T19:12:03.581Z,92.60
2023-04-14T19:14:30.436Z,92.80
2023-04-14T19:16:57.964Z,93.00
2023-04-14T19:19:25.224Z,93.10
2023-04-14T19:21:52.034Z,93.10
2023-04-14T19:24:20.007Z,93.00
2023-04-14T19:26:47.142Z,93.20
2023-04-14T19:29:14.177Z,93.40
2023-04-14T19:31:40.994Z,93.40
2023-04-14T19:34:07.895Z,93.30
2023-04-14T19:36:34.993Z,93.20
2023-04-14T19:39:02.443Z,93.10
2023-04-14T19:41:29.373Z,93.10
2023-04-14T19:43:56.482Z,93.00
2023-04-14T19:46:23.340Z,93.00
2023-04-14T19:48:50.264Z,93.00
2023-04-14T19:51:17.125Z,93.00
2023-04-14T19:53:46.357Z,93.00
2023-04-14T19:56:15.897Z,93.10
2023-04-14T19:58:45.319Z,93.30
2023-04-14T20:01:13.008Z,93.50
2023-04-14T20:04:05.601Z,93.50
2023-04-14T20:06:27.753Z,93.50
2023-04-14T20:08:54.670Z,93.80
2023-04-14T20:11:21.804Z,93.90
2023-04-14T20:13:48.684Z,94.10
2023-04-14T20:16:16.040Z,93.80
2023-04-14T20:18:45.391Z,93.70
2023-04-14T20:21:13.791Z,93.50
2023-04-14T20:23:40.864Z,93.20
2023-04-14T20:26:08.042Z,93.00
2023-04-14T20:28:35.204Z,92.80
2023-04-14T20:31:03.322Z,92.60
2023-04-14T20:33:31.039Z,92.40
2023-04-14T20:36:00.057Z,92.30
2023-04-14T20:38:26.990Z,92.20
2023-04-14T20:40:54.029Z,92.20
2023-04-14T20:43:21.599Z,92.10
2023-04-14T20:45:50.110Z,92.20
2023-04-14T20:48:17.168Z,92.20
2023-04-14T20:50:44.563Z,92.30
2023-04-14T20:53:11.540Z,92.50
2023-04-14T20:55:41.185Z,92.70
2023-04-14T20:58:09.574Z,92.80
2023-04-14T21:00:36.681Z,92.80
2023-04-14T21:03:04.024Z,92.80
2023-04-14T21:05:41.714Z,92.80
2023-04-14T21:08:09.720Z,92.70
2023-04-14T21:10:36.563Z,92.60
2023-04-14T21:15:26.470Z,92.70
2023-04-14T21:16:10.304Z,92.90
2023-04-14T21:18:37.443Z,92.90
2023-04-14T21:21:05.015Z,93.10
2023-04-14T21:23:31.938Z,93.00
2023-04-14T21:25:59.994Z,92.80
2023-04-14T21:28:27.230Z,92.70
2023-04-14T21:31:01.157Z,92.60
2023-04-14T21:33:28.659Z,92.60
2023-04-14T21:35:56.500Z,92.50
2023-04-14T21:38:24.641Z,92.60
2023-04-14T21:40:51.656Z,92.60
2023-04-14T21:43:18.507Z,92.70
2023-04-14T21:45:45.545Z,92.80
2023-04-14T21:48:12.786Z,92.80
2023-04-14T21:50:39.904Z,92.80
2023-04-14T21:53:06.747Z,92.70
2023-04-14T21:55:33.626Z,92.70
2023-04-14T21:58:04.846Z,92.60
2023-04-14T22:00:31.989Z,92.30
2023-04-14T22:02:58.965Z,92.40
2023-04-14T22:05:25.955Z,92.40
2023-04-14T22:07:53.895Z,92.50
2023-04-14T22:10:21.877Z,92.50
2023-04-14T22:12:49.072Z,92.50
2023-04-14T22:15:16.831Z,92.50
2023-04-14T22:17:44.874Z,92.40
2023-04-14T22:20:12.094Z,92.30
2023-04-14T22:22:38.960Z,92.30
2023-04-14T22:25:06.656Z,92.20
2023-04-14T22:27:34.624Z,92.30
2023-04-14T22:30:02.696Z,92.20
2023-04-14T22:32:29.698Z,92.20
2023-04-14T22:34:56.499Z,92.20
2023-04-14T22:37:23.438Z,92.10
2023-04-14T22:39:50.496Z,92.10
2023-04-14T22:42:17.597Z,92.10
2023-04-14T22:44:44.538Z,92.20
2023-04-14T22:47:11.354Z,92.30
2023-04-14T22:49:38.190Z,92.30
2023-04-14T22:52:05.307Z,92.30
2023-04-14T22:54:32.755Z,92.50
2023-04-14T22:57:00.032Z,92.50
2023-04-14T22:59:27.136Z,92.50
2023-04-14T23:01:54.240Z,92.50
2023-04-14T23:04:21.401Z,92.60
2023-04-14T23:06:48.930Z,92.60
2023-04-14T23:09:16.161Z,92.30
2023-04-14T23:11:43.318Z,92.40
2023-04-14T23:14:10.211Z,92.30
2023-04-14T23:16:37.272Z,92.30
2023-04-14T23:19:04.354Z,92.30
2023-04-14T23:21:31.393Z,92.30
2023-04-14T23:23:58.314Z,92.30
2023-04-14T23:26:25.706Z,92.30
2023-04-14T23:28:53.152Z,92.20
2023-04-14T23:31:20.081Z,92.20
2023-04-14T23:33:49.547Z,92.20
2023-04-14T23:36:16.622Z,92.10
2023-04-14T23:38:43.832Z,92.20
2023-04-14T23:41:11.204Z,92.00
2023-04-14T23:43:38.057Z,92.20
2023-04-14T23:46:05.143Z,92.10
2023-04-14T23:48:32.490Z,92.10
2023-04-14T23:51:16.877Z,92.10
2023-04-14T23:53:46.121Z,92.20
2023-04-14T23:56:13.072Z,92.20
2023-04-14T23:58:40.110Z,92.30
